sensor_id;sensor_type;location;lat;lon;timestamp;pressure;altitude;pressure_sealevel;temperature;humidity
72262;BME280;60173;52.112;8.648;2023-08-07T00:00:44;99850.13;;;14.14;100.00
72262;BME280;60173;52.112;8.648;2023-08-07T00:03:11;99851.06;;;14.18;100.00
72262;BME280;60173;52.112;8.648;2023-08-07T00:05:37;99852.34;;;14.33;100.00
72262;BME280;60173;52.112;8.648;2023-08-07T00:08:04;99847.91;;;14.40;100.00
72262;BME280;60173;52.112;8.648;2023-08-07T00:10:30;99846.84;;;14.54;99.97
72262;BME280;60173;52.112;8.648;2023-08-07T00:12:56;99843.81;;;14.34;100.00
72262;BME280;60173;52.112;8.648;2023-08-07T00:15:23;99846.03;;;14.20;100.00
72262;BME280;60173;52.112;8.648;2023-08-07T00:17:49;99845.59;;;14.18;100.00
72262;BME280;60173;52.112;8.648;2023-08-07T00:20:16;99850.81;;;14.23;100.00
72262;BME280;60173;52.112;8.648;2023-08-07T00:22:42;99852.25;;;14.08;100.00
72262;BME280;60173;52.112;8.648;2023-08-07T00:25:08;99853.31;;;14.16;100.00
72262;BME280;60173;52.112;8.648;2023-08-07T00:27:35;99843.47;;;14.23;100.00
72262;BME280;60173;52.112;8.648;2023-08-07T00:30:01;99836.75;;;14.33;100.00
72262;BME280;60173;52.112;8.648;2023-08-07T00:32:28;99847.56;;;14.30;100.00
72262;BME280;60173;52.112;8.648;2023-08-07T00:34:54;99844.75;;;14.38;100.00
72262;BME280;60173;52.112;8.648;2023-08-07T00:37:20;99832.56;;;14.48;100.00
72262;BME280;60173;52.112;8.648;2023-08-07T00:39:47;99840.75;;;14.36;100.00
72262;BME280;60173;52.112;8.648;2023-08-07T00:42:13;99837.41;;;14.18;100.00
72262;BME280;60173;52.112;8.648;2023-08-07T00:44:39;99849.34;;;14.13;100.00
72262;BME280;60173;52.112;8.648;2023-08-07T00:47:06;99847.88;;;14.16;100.00
72262;BME280;60173;52.112;8.648;2023-08-07T00:49:33;99844.13;;;14.20;100.00
72262;BME280;60173;52.112;8.648;2023-08-07T00:52:00;99845.09;;;14.04;100.00
72262;BME280;60173;52.112;8.648;2023-08-07T00:54:26;99838.19;;;13.85;100.00
72262;BME280;60173;52.112;8.648;2023-08-07T00:56:52;99845.63;;;13.97;100.00
72262;BME280;60173;52.112;8.648;2023-08-07T00:59:19;99849.84;;;13.94;100.00
72262;BME280;60173;52.112;8.648;2023-08-07T01:01:46;99847.13;;;13.94;100.00
72262;BME280;60173;52.112;8.648;2023-08-07T01:04:12;99844.81;;;13.96;100.00
72262;BME280;60173;52.112;8.648;2023-08-07T01:06:40;99846.28;;;13.94;100.00
72262;BME280;60173;52.112;8.648;2023-08-07T01:09:06;99853.44;;;13.86;100.00
72262;BME280;60173;52.112;8.648;2023-08-07T01:11:39;99852.97;;;13.84;100.00
72262;BME280;60173;52.112;8.648;2023-08-07T01:14:15;99840.13;;;13.85;100.00
72262;BME280;60173;52.112;8.648;2023-08-07T01:16:59;99841.81;;;13.77;100.00
72262;BME280;60173;52.112;8.648;2023-08-07T01:19:28;99850.56;;;13.83;100.00
72262;BME280;60173;52.112;8.648;2023-08-07T01:22:10;99841.47;;;13.78;100.00
72262;BME280;60173;52.112;8.648;2023-08-07T01:24:39;99848.38;;;13.76;100.00
72262;BME280;60173;52.112;8.648;2023-08-07T01:29:46;99837.13;;;13.56;100.00
72262;BME280;60173;52.112;8.648;2023-08-07T01:32:16;99834.56;;;13.60;100.00
72262;BME280;60173;52.112;8.648;2023-08-07T01:34:46;99832.63;;;13.61;100.00
72262;BME280;60173;52.112;8.648;2023-08-07T01:37:14;99836.75;;;13.67;100.00
72262;BME280;60173;52.112;8.648;2023-08-07T01:39:42;99843.59;;;13.73;100.00
72262;BME280;60173;52.112;8.648;2023-08-07T01:42:09;99839.91;;;13.90;100.00
72262;BME280;60173;52.112;8.648;2023-08-07T01:44:36;99843.56;;;13.94;100.00
72262;BME280;60173;52.112;8.648;2023-08-07T01:47:03;99840.59;;;13.87;100.00
72262;BME280;60173;52.112;8.648;2023-08-07T01:49:30;99836.03;;;13.91;100.00
72262;BME280;60173;52.112;8.648;2023-08-07T01:51:56;99838.09;;;13.94;100.00
72262;BME280;60173;52.112;8.648;2023-08-07T01:54:22;99840.41;;;13.92;100.00
72262;BME280;60173;52.112;8.648;2023-08-07T01:56:49;99837.00;;;13.95;100.00
72262;BME280;60173;52.112;8.648;2023-08-07T01:59:15;99836.84;;;13.91;100.00
72262;BME280;60173;52.112;8.648;2023-08-07T02:01:41;99847.50;;;13.84;100.00
72262;BME280;60173;52.112;8.648;2023-08-07T02:04:08;99848.84;;;13.78;100.00
72262;BME280;60173;52.112;8.648;2023-08-07T02:06:34;99848.19;;;13.81;100.00
72262;BME280;60173;52.112;8.648;2023-08-07T02:09:01;99843.03;;;14.00;100.00
72262;BME280;60173;52.112;8.648;2023-08-07T02:11:27;99840.31;;;14.00;100.00
72262;BME280;60173;52.112;8.648;2023-08-07T02:13:53;99836.91;;;14.04;100.00
72262;BME280;60173;52.112;8.648;2023-08-07T02:16:20;99838.38;;;14.01;100.00
72262;BME280;60173;52.112;8.648;2023-08-07T02:18:46;99836.47;;;13.81;100.00
72262;BME280;60173;52.112;8.648;2023-08-07T02:21:13;99839.81;;;13.86;100.00
72262;BME280;60173;52.112;8.648;2023-08-07T02:23:39;99846.56;;;14.01;100.00
72262;BME280;60173;52.112;8.648;2023-08-07T02:26:05;99839.97;;;14.02;100.00
72262;BME280;60173;52.112;8.648;2023-08-07T02:28:32;99837.34;;;14.06;100.00
72262;BME280;60173;52.112;8.648;2023-08-07T02:30:58;99840.00;;;13.81;100.00
72262;BME280;60173;52.112;8.648;2023-08-07T02:33:24;99840.25;;;13.88;100.00
72262;BME280;60173;52.112;8.648;2023-08-07T02:35:51;99839.84;;;13.98;100.00
72262;BME280;60173;52.112;8.648;2023-08-07T02:38:17;99843.44;;;13.90;100.00
72262;BME280;60173;52.112;8.648;2023-08-07T02:40:44;99847.44;;;13.93;100.00
72262;BME280;60173;52.112;8.648;2023-08-07T02:43:10;99845.91;;;14.04;100.00
72262;BME280;60173;52.112;8.648;2023-08-07T02:45:36;99838.47;;;13.92;100.00
72262;BME280;60173;52.112;8.648;2023-08-07T02:48:03;99840.72;;;13.90;100.00
72262;BME280;60173;52.112;8.648;2023-08-07T02:50:29;99839.19;;;14.14;100.00
72262;BME280;60173;52.112;8.648;2023-08-07T02:52:56;99841.97;;;14.26;100.00
72262;BME280;60173;52.112;8.648;2023-08-07T02:55:22;99848.25;;;14.27;100.00
72262;BME280;60173;52.112;8.648;2023-08-07T02:57:49;99834.78;;;14.21;100.00
72262;BME280;60173;52.112;8.648;2023-08-07T03:00:15;99837.84;;;14.20;100.00
72262;BME280;60173;52.112;8.648;2023-08-07T03:02:42;99840.63;;;14.32;99.80
72262;BME280;60173;52.112;8.648;2023-08-07T03:05:08;99843.59;;;14.39;99.21
72262;BME280;60173;52.112;8.648;2023-08-07T03:07:35;99835.66;;;14.46;99.29
72262;BME280;60173;52.112;8.648;2023-08-07T03:10:01;99834.50;;;14.35;98.87
72262;BME280;60173;52.112;8.648;2023-08-07T03:12:28;99835.19;;;14.44;98.57
72262;BME280;60173;52.112;8.648;2023-08-07T03:14:54;99837.25;;;14.47;98.65
72262;BME280;60173;52.112;8.648;2023-08-07T03:17:20;99840.16;;;14.30;99.46
72262;BME280;60173;52.112;8.648;2023-08-07T03:19:47;99836.88;;;14.37;99.52
72262;BME280;60173;52.112;8.648;2023-08-07T03:22:13;99838.13;;;14.39;99.56
72262;BME280;60173;52.112;8.648;2023-08-07T03:24:40;99839.13;;;14.35;99.70
72262;BME280;60173;52.112;8.648;2023-08-07T03:27:06;99840.53;;;14.41;99.52
72262;BME280;60173;52.112;8.648;2023-08-07T03:29:32;99838.81;;;14.48;99.42
72262;BME280;60173;52.112;8.648;2023-08-07T03:31:59;99836.03;;;14.57;99.28
72262;BME280;60173;52.112;8.648;2023-08-07T03:34:25;99833.66;;;14.68;98.47
72262;BME280;60173;52.112;8.648;2023-08-07T03:36:52;99837.06;;;14.65;98.14
72262;BME280;60173;52.112;8.648;2023-08-07T03:39:19;99837.28;;;14.72;98.10
72262;BME280;60173;52.112;8.648;2023-08-07T03:41:45;99842.69;;;14.47;98.39
72262;BME280;60173;52.112;8.648;2023-08-07T03:44:11;99837.50;;;14.55;98.64
72262;BME280;60173;52.112;8.648;2023-08-07T03:46:38;99843.13;;;14.37;99.32
72262;BME280;60173;52.112;8.648;2023-08-07T03:49:05;99852.78;;;14.35;99.81
72262;BME280;60173;52.112;8.648;2023-08-07T03:51:31;99842.34;;;14.37;99.98
72262;BME280;60173;52.112;8.648;2023-08-07T03:53:58;99848.81;;;14.32;100.00
72262;BME280;60173;52.112;8.648;2023-08-07T03:56:24;99854.06;;;14.37;100.00
72262;BME280;60173;52.112;8.648;2023-08-07T03:58:51;99852.06;;;14.13;100.00
72262;BME280;60173;52.112;8.648;2023-08-07T04:01:17;99846.94;;;14.12;100.00
72262;BME280;60173;52.112;8.648;2023-08-07T04:03:46;99852.69;;;14.31;100.00
72262;BME280;60173;52.112;8.648;2023-08-07T04:06:13;99855.44;;;14.43;100.00
72262;BME280;60173;52.112;8.648;2023-08-07T04:08:39;99850.94;;;14.60;99.88
72262;BME280;60173;52.112;8.648;2023-08-07T04:11:07;99851.63;;;14.69;98.75
72262;BME280;60173;52.112;8.648;2023-08-07T04:13:34;99846.41;;;14.64;98.23
72262;BME280;60173;52.112;8.648;2023-08-07T04:16:00;99846.31;;;14.39;99.49
72262;BME280;60173;52.112;8.648;2023-08-07T04:18:27;99854.28;;;14.32;100.00
72262;BME280;60173;52.112;8.648;2023-08-07T04:20:54;99854.63;;;14.31;100.00
72262;BME280;60173;52.112;8.648;2023-08-07T04:23:21;99860.63;;;14.24;100.00
72262;BME280;60173;52.112;8.648;2023-08-07T04:25:48;99851.97;;;14.22;100.00
72262;BME280;60173;52.112;8.648;2023-08-07T04:28:15;99847.22;;;14.31;100.00
72262;BME280;60173;52.112;8.648;2023-08-07T04:30:43;99846.09;;;14.32;100.00
72262;BME280;60173;52.112;8.648;2023-08-07T04:33:10;99853.25;;;14.37;100.00
72262;BME280;60173;52.112;8.648;2023-08-07T04:35:36;99849.50;;;14.29;100.00
72262;BME280;60173;52.112;8.648;2023-08-07T04:38:03;99853.81;;;14.30;100.00
72262;BME280;60173;52.112;8.648;2023-08-07T04:40:29;99864.06;;;14.33;100.00
72262;BME280;60173;52.112;8.648;2023-08-07T04:42:56;99861.53;;;14.28;100.00
72262;BME280;60173;52.112;8.648;2023-08-07T04:45:23;99868.63;;;14.29;100.00
72262;BME280;60173;52.112;8.648;2023-08-07T04:47:49;99867.63;;;14.46;100.00
72262;BME280;60173;52.112;8.648;2023-08-07T04:50:16;99873.84;;;14.34;100.00
72262;BME280;60173;52.112;8.648;2023-08-07T04:52:42;99881.22;;;14.55;99.50
72262;BME280;60173;52.112;8.648;2023-08-07T04:55:08;99871.91;;;14.35;99.65
72262;BME280;60173;52.112;8.648;2023-08-07T04:57:35;99877.03;;;14.24;100.00
72262;BME280;60173;52.112;8.648;2023-08-07T05:00:01;99882.50;;;14.24;100.00
72262;BME280;60173;52.112;8.648;2023-08-07T05:02:28;99876.47;;;14.31;99.49
72262;BME280;60173;52.112;8.648;2023-08-07T05:04:54;99885.13;;;14.33;99.58
72262;BME280;60173;52.112;8.648;2023-08-07T05:07:21;99881.00;;;14.60;98.63
72262;BME280;60173;52.112;8.648;2023-08-07T05:09:47;99891.31;;;14.42;98.75
72262;BME280;60173;52.112;8.648;2023-08-07T05:12:13;99895.75;;;14.46;98.92
72262;BME280;60173;52.112;8.648;2023-08-07T05:14:40;99901.50;;;14.54;98.15
72262;BME280;60173;52.112;8.648;2023-08-07T05:17:06;99897.00;;;14.49;97.69
72262;BME280;60173;52.112;8.648;2023-08-07T05:19:32;99895.28;;;14.44;98.47
72262;BME280;60173;52.112;8.648;2023-08-07T05:21:59;99882.44;;;14.45;97.70
72262;BME280;60173;52.112;8.648;2023-08-07T05:24:25;99889.81;;;14.44;97.73
72262;BME280;60173;52.112;8.648;2023-08-07T05:26:52;99886.50;;;14.39;97.75
72262;BME280;60173;52.112;8.648;2023-08-07T05:29:18;99895.38;;;14.36;97.42
72262;BME280;60173;52.112;8.648;2023-08-07T05:31:44;99899.03;;;14.40;97.56
72262;BME280;60173;52.112;8.648;2023-08-07T05:34:11;99898.44;;;14.34;97.79
72262;BME280;60173;52.112;8.648;2023-08-07T05:36:37;99901.75;;;14.40;97.55
72262;BME280;60173;52.112;8.648;2023-08-07T05:39:03;99904.16;;;14.41;97.26
72262;BME280;60173;52.112;8.648;2023-08-07T05:41:30;99900.09;;;14.47;96.78
72262;BME280;60173;52.112;8.648;2023-08-07T05:43:56;99911.28;;;14.55;96.33
72262;BME280;60173;52.112;8.648;2023-08-07T05:46:23;99909.72;;;14.66;95.65
72262;BME280;60173;52.112;8.648;2023-08-07T05:48:49;99905.59;;;14.60;95.84
72262;BME280;60173;52.112;8.648;2023-08-07T05:51:16;99911.53;;;14.62;96.40
72262;BME280;60173;52.112;8.648;2023-08-07T05:53:42;99911.94;;;14.52;97.33
72262;BME280;60173;52.112;8.648;2023-08-07T05:56:08;99909.69;;;14.54;96.99
72262;BME280;60173;52.112;8.648;2023-08-07T05:58:35;99914.06;;;14.67;96.63
72262;BME280;60173;52.112;8.648;2023-08-07T06:01:01;99921.69;;;14.74;94.75
72262;BME280;60173;52.112;8.648;2023-08-07T06:03:27;99915.94;;;14.54;95.86
72262;BME280;60173;52.112;8.648;2023-08-07T06:05:54;99910.75;;;14.74;95.92
72262;BME280;60173;52.112;8.648;2023-08-07T06:08:20;99915.34;;;14.82;94.26
72262;BME280;60173;52.112;8.648;2023-08-07T06:10:47;99920.44;;;14.83;94.04
72262;BME280;60173;52.112;8.648;2023-08-07T06:13:13;99924.06;;;14.75;93.84
72262;BME280;60173;52.112;8.648;2023-08-07T06:15:51;99923.75;;;14.77;95.09
72262;BME280;60173;52.112;8.648;2023-08-07T06:18:18;99930.69;;;14.86;96.05
72262;BME280;60173;52.112;8.648;2023-08-07T06:20:44;99934.50;;;15.06;96.01
72262;BME280;60173;52.112;8.648;2023-08-07T06:23:11;99925.97;;;15.08;95.58
72262;BME280;60173;52.112;8.648;2023-08-07T06:25:37;99932.78;;;15.14;94.56
72262;BME280;60173;52.112;8.648;2023-08-07T06:28:03;99932.53;;;14.95;95.79
72262;BME280;60173;52.112;8.648;2023-08-07T06:30:33;99941.91;;;15.18;94.23
72262;BME280;60173;52.112;8.648;2023-08-07T06:32:59;99935.75;;;15.46;93.13
72262;BME280;60173;52.112;8.648;2023-08-07T06:35:26;99940.06;;;15.47;93.74
72262;BME280;60173;52.112;8.648;2023-08-07T06:37:52;99940.06;;;15.47;92.58
72262;BME280;60173;52.112;8.648;2023-08-07T06:40:18;99936.56;;;15.34;92.98
72262;BME280;60173;52.112;8.648;2023-08-07T06:42:45;99941.22;;;15.46;91.95
72262;BME280;60173;52.112;8.648;2023-08-07T06:45:11;99945.44;;;15.31;93.33
72262;BME280;60173;52.112;8.648;2023-08-07T06:47:38;99946.22;;;15.07;94.45
72262;BME280;60173;52.112;8.648;2023-08-07T06:50:04;99942.84;;;15.22;94.19
72262;BME280;60173;52.112;8.648;2023-08-07T06:52:31;99947.16;;;15.23;93.42
72262;BME280;60173;52.112;8.648;2023-08-07T06:54:57;99946.25;;;15.31;93.08
72262;BME280;60173;52.112;8.648;2023-08-07T06:57:24;99953.31;;;15.57;93.09
72262;BME280;60173;52.112;8.648;2023-08-07T06:59:50;99956.03;;;15.20;92.67
72262;BME280;60173;52.112;8.648;2023-08-07T07:02:16;99949.88;;;15.60;91.59
72262;BME280;60173;52.112;8.648;2023-08-07T07:04:43;99947.72;;;15.66;91.00
72262;BME280;60173;52.112;8.648;2023-08-07T07:07:09;99954.63;;;15.88;90.52
72262;BME280;60173;52.112;8.648;2023-08-07T07:09:35;99954.34;;;16.17;89.90
72262;BME280;60173;52.112;8.648;2023-08-07T07:12:02;99950.78;;;16.45;88.58
72262;BME280;60173;52.112;8.648;2023-08-07T07:14:28;99952.66;;;16.41;86.70
72262;BME280;60173;52.112;8.648;2023-08-07T07:16:55;99952.75;;;16.44;88.47
72262;BME280;60173;52.112;8.648;2023-08-07T07:19:21;99955.47;;;16.72;85.91
72262;BME280;60173;52.112;8.648;2023-08-07T07:21:48;99961.97;;;16.96;85.89
72262;BME280;60173;52.112;8.648;2023-08-07T07:24:14;99958.22;;;16.44;87.99
72262;BME280;60173;52.112;8.648;2023-08-07T07:26:40;99965.09;;;16.66;88.82
72262;BME280;60173;52.112;8.648;2023-08-07T07:29:07;99975.06;;;16.31;88.35
72262;BME280;60173;52.112;8.648;2023-08-07T07:31:33;99966.81;;;16.15;90.29
72262;BME280;60173;52.112;8.648;2023-08-07T07:33:59;99971.69;;;16.21;90.95
72262;BME280;60173;52.112;8.648;2023-08-07T07:36:26;99973.03;;;17.00;88.47
72262;BME280;60173;52.112;8.648;2023-08-07T07:38:52;99976.47;;;17.44;86.60
72262;BME280;60173;52.112;8.648;2023-08-07T07:41:19;99978.38;;;17.75;84.67
72262;BME280;60173;52.112;8.648;2023-08-07T07:43:46;99980.81;;;17.96;83.26
72262;BME280;60173;52.112;8.648;2023-08-07T07:46:12;99982.16;;;17.51;83.45
72262;BME280;60173;52.112;8.648;2023-08-07T07:48:39;99979.31;;;17.99;83.77
72262;BME280;60173;52.112;8.648;2023-08-07T07:51:05;99978.81;;;18.13;82.34
72262;BME280;60173;52.112;8.648;2023-08-07T07:53:32;99973.97;;;17.71;83.19
72262;BME280;60173;52.112;8.648;2023-08-07T07:55:58;99982.47;;;17.66;83.52
72262;BME280;60173;52.112;8.648;2023-08-07T07:58:25;99980.59;;;17.19;84.82
72262;BME280;60173;52.112;8.648;2023-08-07T08:00:51;99985.34;;;17.53;85.71
72262;BME280;60173;52.112;8.648;2023-08-07T08:03:17;99983.81;;;17.56;85.27
72262;BME280;60173;52.112;8.648;2023-08-07T08:05:44;99991.19;;;17.04;86.19
72262;BME280;60173;52.112;8.648;2023-08-07T08:08:10;99998.09;;;16.70;87.76
72262;BME280;60173;52.112;8.648;2023-08-07T08:10:37;99994.59;;;16.57;89.28
72262;BME280;60173;52.112;8.648;2023-08-07T08:13:03;100002.09;;;16.72;86.52
72262;BME280;60173;52.112;8.648;2023-08-07T08:15:30;100000.72;;;17.74;84.87
72262;BME280;60173;52.112;8.648;2023-08-07T08:17:56;100013.75;;;18.12;82.09
72262;BME280;60173;52.112;8.648;2023-08-07T08:20:23;100015.81;;;17.16;85.16
72262;BME280;60173;52.112;8.648;2023-08-07T08:22:49;100005.78;;;16.64;87.86
72262;BME280;60173;52.112;8.648;2023-08-07T08:25:15;100010.63;;;16.43;90.23
72262;BME280;60173;52.112;8.648;2023-08-07T08:27:42;100010.03;;;16.21;90.48
72262;BME280;60173;52.112;8.648;2023-08-07T08:30:09;100016.00;;;15.62;94.71
72262;BME280;60173;52.112;8.648;2023-08-07T08:32:35;100024.22;;;15.25;95.19
72262;BME280;60173;52.112;8.648;2023-08-07T08:35:02;100023.44;;;14.91;98.30
72262;BME280;60173;52.112;8.648;2023-08-07T08:37:28;100032.44;;;14.92;97.54
72262;BME280;60173;52.112;8.648;2023-08-07T08:39:54;100038.78;;;15.17;97.33
72262;BME280;60173;52.112;8.648;2023-08-07T08:42:21;100037.69;;;15.67;97.06
72262;BME280;60173;52.112;8.648;2023-08-07T08:44:58;100034.22;;;16.32;93.31
72262;BME280;60173;52.112;8.648;2023-08-07T08:47:25;100037.84;;;16.36;92.24
72262;BME280;60173;52.112;8.648;2023-08-07T08:50:01;100033.78;;;16.58;91.77
72262;BME280;60173;52.112;8.648;2023-08-07T08:52:28;100041.00;;;16.50;90.46
72262;BME280;60173;52.112;8.648;2023-08-07T08:54:57;100043.69;;;16.62;90.54
72262;BME280;60173;52.112;8.648;2023-08-07T08:57:27;100041.88;;;16.94;89.32
72262;BME280;60173;52.112;8.648;2023-08-07T08:59:55;100047.66;;;16.49;88.64
72262;BME280;60173;52.112;8.648;2023-08-07T09:02:22;100042.03;;;16.45;90.83
72262;BME280;60173;52.112;8.648;2023-08-07T09:04:49;100050.25;;;16.86;87.62
72262;BME280;60173;52.112;8.648;2023-08-07T09:07:15;100046.19;;;17.39;85.63
72262;BME280;60173;52.112;8.648;2023-08-07T09:09:43;100046.97;;;17.72;82.65
72262;BME280;60173;52.112;8.648;2023-08-07T09:12:16;100042.63;;;17.87;80.48
72262;BME280;60173;52.112;8.648;2023-08-07T09:14:44;100030.56;;;16.96;80.81
72262;BME280;60173;52.112;8.648;2023-08-07T09:17:16;100038.44;;;16.69;82.52
72262;BME280;60173;52.112;8.648;2023-08-07T09:19:43;100052.28;;;16.20;88.17
72262;BME280;60173;52.112;8.648;2023-08-07T09:22:09;100052.78;;;15.86;89.48
72262;BME280;60173;52.112;8.648;2023-08-07T09:24:36;100080.38;;;15.93;90.56
72262;BME280;60173;52.112;8.648;2023-08-07T09:27:02;100098.13;;;15.50;92.36
72262;BME280;60173;52.112;8.648;2023-08-07T09:29:29;100101.31;;;13.93;93.28
72262;BME280;60173;52.112;8.648;2023-08-07T09:31:55;100095.00;;;12.98;100.00
72262;BME280;60173;52.112;8.648;2023-08-07T09:34:22;100088.78;;;12.80;100.00
72262;BME280;60173;52.112;8.648;2023-08-07T09:36:48;100087.97;;;12.80;100.00
72262;BME280;60173;52.112;8.648;2023-08-07T09:39:15;100103.66;;;13.00;100.00
72262;BME280;60173;52.112;8.648;2023-08-07T09:41:41;100107.84;;;12.98;100.00
72262;BME280;60173;52.112;8.648;2023-08-07T09:44:08;100101.09;;;12.95;100.00
72262;BME280;60173;52.112;8.648;2023-08-07T09:46:42;100108.59;;;13.24;100.00
72262;BME280;60173;52.112;8.648;2023-08-07T09:49:09;100107.94;;;13.36;100.00
72262;BME280;60173;52.112;8.648;2023-08-07T09:51:46;100116.16;;;13.83;100.00
72262;BME280;60173;52.112;8.648;2023-08-07T09:54:13;100108.75;;;14.13;100.00
72262;BME280;60173;52.112;8.648;2023-08-07T09:56:40;100113.41;;;14.63;100.00
72262;BME280;60173;52.112;8.648;2023-08-07T09:59:07;100108.72;;;15.06;100.00
72262;BME280;60173;52.112;8.648;2023-08-07T10:01:36;100118.91;;;14.84;100.00
72262;BME280;60173;52.112;8.648;2023-08-07T10:04:04;100110.78;;;15.09;100.00
72262;BME280;60173;52.112;8.648;2023-08-07T10:06:31;100113.47;;;15.30;100.00
72262;BME280;60173;52.112;8.648;2023-08-07T10:08:59;100118.16;;;15.42;100.00
72262;BME280;60173;52.112;8.648;2023-08-07T10:11:27;100123.53;;;15.05;100.00
72262;BME280;60173;52.112;8.648;2023-08-07T10:13:54;100128.44;;;14.78;100.00
72262;BME280;60173;52.112;8.648;2023-08-07T10:16:21;100125.56;;;14.75;100.00
72262;BME280;60173;52.112;8.648;2023-08-07T10:18:47;100123.00;;;15.11;100.00
72262;BME280;60173;52.112;8.648;2023-08-07T10:21:14;100123.91;;;15.61;99.57
72262;BME280;60173;52.112;8.648;2023-08-07T10:23:41;100117.34;;;16.11;97.89
72262;BME280;60173;52.112;8.648;2023-08-07T10:26:09;100119.66;;;15.97;90.34
72262;BME280;60173;52.112;8.648;2023-08-07T10:28:39;100115.00;;;15.52;90.40
72262;BME280;60173;52.112;8.648;2023-08-07T10:31:07;100122.81;;;15.29;92.99
72262;BME280;60173;52.112;8.648;2023-08-07T10:33:36;100125.78;;;15.69;92.12
72262;BME280;60173;52.112;8.648;2023-08-07T10:36:10;100123.50;;;15.96;85.84
72262;BME280;60173;52.112;8.648;2023-08-07T10:38:37;100143.00;;;15.70;84.06
72262;BME280;60173;52.112;8.648;2023-08-07T10:41:12;100161.13;;;14.96;89.75
72262;BME280;60173;52.112;8.648;2023-08-07T10:43:43;100161.66;;;14.38;91.06
72262;BME280;60173;52.112;8.648;2023-08-07T10:46:20;100160.78;;;14.17;92.79
72262;BME280;60173;52.112;8.648;2023-08-07T10:48:54;100172.53;;;14.09;96.63
72262;BME280;60173;52.112;8.648;2023-08-07T10:51:28;100172.84;;;14.45;95.59
72262;BME280;60173;52.112;8.648;2023-08-07T10:53:55;100169.50;;;14.69;95.39
72262;BME280;60173;52.112;8.648;2023-08-07T10:56:35;100176.63;;;15.04;98.21
72262;BME280;60173;52.112;8.648;2023-08-07T10:59:11;100169.94;;;14.92;95.62
72262;BME280;60173;52.112;8.648;2023-08-07T11:06:36;100174.31;;;15.48;93.53
72262;BME280;60173;52.112;8.648;2023-08-07T11:09:05;100176.56;;;15.46;92.27
72262;BME280;60173;52.112;8.648;2023-08-07T11:11:43;100182.53;;;15.60;91.29
72262;BME280;60173;52.112;8.648;2023-08-07T11:14:18;100187.63;;;15.49;92.41
72262;BME280;60173;52.112;8.648;2023-08-07T11:16:47;100202.19;;;15.08;93.40
72262;BME280;60173;52.112;8.648;2023-08-07T11:19:16;100232.31;;;14.10;94.84
72262;BME280;60173;52.112;8.648;2023-08-07T11:21:43;100236.59;;;13.21;96.83
72262;BME280;60173;52.112;8.648;2023-08-07T11:24:12;100247.19;;;13.05;96.87
72262;BME280;60173;52.112;8.648;2023-08-07T11:26:39;100219.75;;;13.19;95.37
72262;BME280;60173;52.112;8.648;2023-08-07T11:29:06;100219.09;;;13.56;93.86
72262;BME280;60173;52.112;8.648;2023-08-07T11:31:32;100221.75;;;13.91;90.86
72262;BME280;60173;52.112;8.648;2023-08-07T11:33:59;100206.69;;;14.32;91.14
72262;BME280;60173;52.112;8.648;2023-08-07T11:36:26;100198.28;;;14.37;91.76
72262;BME280;60173;52.112;8.648;2023-08-07T11:38:52;100205.84;;;14.70;88.43
72262;BME280;60173;52.112;8.648;2023-08-07T11:41:19;100207.31;;;15.09;84.72
72262;BME280;60173;52.112;8.648;2023-08-07T11:43:46;100221.06;;;15.01;83.92
72262;BME280;60173;52.112;8.648;2023-08-07T11:46:14;100226.78;;;15.29;82.84
72262;BME280;60173;52.112;8.648;2023-08-07T11:48:41;100218.19;;;15.72;84.99
72262;BME280;60173;52.112;8.648;2023-08-07T11:51:08;100212.56;;;16.14;83.25
72262;BME280;60173;52.112;8.648;2023-08-07T11:53:36;100221.00;;;16.34;80.88
72262;BME280;60173;52.112;8.648;2023-08-07T11:56:11;100214.59;;;16.54;81.62
72262;BME280;60173;52.112;8.648;2023-08-07T11:58:42;100212.91;;;16.25;77.41
72262;BME280;60173;52.112;8.648;2023-08-07T12:01:16;100209.25;;;16.58;78.14
72262;BME280;60173;52.112;8.648;2023-08-07T12:03:53;100223.41;;;16.35;73.78
72262;BME280;60173;52.112;8.648;2023-08-07T12:06:21;100214.47;;;16.63;76.27
72262;BME280;60173;52.112;8.648;2023-08-07T12:08:49;100214.94;;;16.65;75.55
72262;BME280;60173;52.112;8.648;2023-08-07T12:11:16;100206.03;;;17.21;74.36
72262;BME280;60173;52.112;8.648;2023-08-07T12:13:44;100216.47;;;17.43;71.24
72262;BME280;60173;52.112;8.648;2023-08-07T12:16:11;100200.72;;;17.84;72.03
72262;BME280;60173;52.112;8.648;2023-08-07T12:18:38;100201.88;;;17.55;68.85
72262;BME280;60173;52.112;8.648;2023-08-07T12:21:06;100204.44;;;18.23;69.24
72262;BME280;60173;52.112;8.648;2023-08-07T12:23:34;100205.34;;;18.63;65.09
72262;BME280;60173;52.112;8.648;2023-08-07T12:26:01;100204.16;;;18.95;64.36
72262;BME280;60173;52.112;8.648;2023-08-07T12:28:28;100198.00;;;18.67;63.07
72262;BME280;60173;52.112;8.648;2023-08-07T12:30:54;100215.72;;;18.02;63.35
72262;BME280;60173;52.112;8.648;2023-08-07T12:33:22;100215.91;;;18.25;64.99
72262;BME280;60173;52.112;8.648;2023-08-07T12:35:49;100214.03;;;18.29;62.91
72262;BME280;60173;52.112;8.648;2023-08-07T12:38:15;100217.19;;;17.84;64.46
72262;BME280;60173;52.112;8.648;2023-08-07T12:40:41;100216.66;;;17.78;66.28
72262;BME280;60173;52.112;8.648;2023-08-07T12:43:10;100218.81;;;18.33;63.76
72262;BME280;60173;52.112;8.648;2023-08-07T12:45:36;100226.75;;;18.69;61.41
72262;BME280;60173;52.112;8.648;2023-08-07T12:48:06;100211.44;;;18.21;60.93
72262;BME280;60173;52.112;8.648;2023-08-07T12:50:33;100221.16;;;17.71;62.74
72262;BME280;60173;52.112;8.648;2023-08-07T12:52:59;100230.94;;;17.28;65.97
72262;BME280;60173;52.112;8.648;2023-08-07T12:55:26;100247.69;;;17.10;67.36
72262;BME280;60173;52.112;8.648;2023-08-07T12:57:53;100244.06;;;16.94;64.21
72262;BME280;60173;52.112;8.648;2023-08-07T13:00:20;100239.31;;;17.19;63.20